Xi Ujimqin Qi, China
Current Conditions -  °F | °C
As of 9:00 AM on Sunday 23 Nov 2014 (Local Time) from ZBAA Reporting Station
Haze Haze  
Wind Chill: 38°   Ceiling: Unl
Heat Index: 41°   Visibility: 2.8mi
Dew Point: 32°   Wind: 4mph
Humidity: 70%   Direction: 360°N
Pressure: 30.3"   Gusts: NA
Location:  44.58°N, 117.6°E
Report Text: ZBAA 230100Z 36002MPS 4500 BR NSC 05/00 Q1026 NOSIG
Loading
Personal Weather Stations






























Interactive Weather Map New forecast layout! Learn more

10-Day Weather Forecast

Advertisements
Track Severe Weather on mobile